Terminal Aerodrome Forecast
Issued by NWS New Orleans/Baton Rouge, LA

Home | Current Version | Previous Version | Text Only | Print | Product List | Glossary On
Versions: 1 2 3 4 5 6 7 8 9 10 11 12 13 14
000
FTUS44 KLIX 202332
TAFNEW
TAF
KNEW 202332Z 2100/2124 10007KT P6SM BKN250
     FM211400 11011KT P6SM SCT080 SCT250
     FM211500 11012KT P6SM BKN030 BKN200
     FM212300 11015KT P6SM BKN020 BKN180=

USA.gov is the U.S. government's official web portal to all federal, state and local government web resources and services.